sensor_id;sensor_type;location;lat;lon;timestamp;temperature;humidity
1778;DHT22;71547;50.146;8.174;2024-03-29T00:00:40;6.30;99.90
1778;DHT22;71547;50.146;8.174;2024-03-29T00:03:07;6.40;99.90
1778;DHT22;71547;50.146;8.174;2024-03-29T00:05:33;6.30;99.90
1778;DHT22;71547;50.146;8.174;2024-03-29T00:07:59;6.40;99.90
1778;DHT22;71547;50.146;8.174;2024-03-29T00:10:25;6.40;99.90
1778;DHT22;71547;50.146;8.174;2024-03-29T00:12:52;6.40;99.90
1778;DHT22;71547;50.146;8.174;2024-03-29T00:15:19;6.50;99.90
1778;DHT22;71547;50.146;8.174;2024-03-29T00:17:45;6.50;99.90
1778;DHT22;71547;50.146;8.174;2024-03-29T00:20:14;6.60;99.90
1778;DHT22;71547;50.146;8.174;2024-03-29T00:22:41;6.60;99.90
1778;DHT22;71547;50.146;8.174;2024-03-29T00:25:07;6.60;99.90
1778;DHT22;71547;50.146;8.174;2024-03-29T00:27:35;6.70;99.90
1778;DHT22;71547;50.146;8.174;2024-03-29T00:30:02;6.70;99.90
1778;DHT22;71547;50.146;8.174;2024-03-29T00:32:33;6.80;99.90
1778;DHT22;71547;50.146;8.174;2024-03-29T00:34:59;7.00;99.90
1778;DHT22;71547;50.146;8.174;2024-03-29T00:37:25;7.00;99.90
1778;DHT22;71547;50.146;8.174;2024-03-29T00:39:51;7.00;99.90
1778;DHT22;71547;50.146;8.174;2024-03-29T00:42:17;7.00;99.90
1778;DHT22;71547;50.146;8.174;2024-03-29T00:44:45;7.00;99.90
1778;DHT22;71547;50.146;8.174;2024-03-29T00:47:11;7.00;99.90
1778;DHT22;71547;50.146;8.174;2024-03-29T00:49:38;7.10;99.90
1778;DHT22;71547;50.146;8.174;2024-03-29T00:52:05;7.10;99.90
1778;DHT22;71547;50.146;8.174;2024-03-29T00:54:50;7.20;99.90
1778;DHT22;71547;50.146;8.174;2024-03-29T00:57:16;7.20;99.90
1778;DHT22;71547;50.146;8.174;2024-03-29T00:59:42;7.20;99.90
1778;DHT22;71547;50.146;8.174;2024-03-29T01:02:09;7.40;99.90
1778;DHT22;71547;50.146;8.174;2024-03-29T01:04:38;7.40;99.90
1778;DHT22;71547;50.146;8.174;2024-03-29T01:07:07;7.40;99.90
1778;DHT22;71547;50.146;8.174;2024-03-29T01:09:33;7.40;99.90
1778;DHT22;71547;50.146;8.174;2024-03-29T01:12:00;7.40;99.90
1778;DHT22;71547;50.146;8.174;2024-03-29T01:14:26;7.50;99.90
1778;DHT22;71547;50.146;8.174;2024-03-29T01:16:52;7.60;99.90
1778;DHT22;71547;50.146;8.174;2024-03-29T01:19:18;7.60;99.90
1778;DHT22;71547;50.146;8.174;2024-03-29T01:21:46;7.60;99.90
1778;DHT22;71547;50.146;8.174;2024-03-29T01:24:12;7.60;99.90
1778;DHT22;71547;50.146;8.174;2024-03-29T01:26:38;7.70;99.90
1778;DHT22;71547;50.146;8.174;2024-03-29T01:29:04;7.70;99.90
1778;DHT22;71547;50.146;8.174;2024-03-29T01:31:32;7.70;99.90
1778;DHT22;71547;50.146;8.174;2024-03-29T01:33:58;7.70;99.90
1778;DHT22;71547;50.146;8.174;2024-03-29T01:36:24;7.70;99.90
1778;DHT22;71547;50.146;8.174;2024-03-29T01:38:51;7.70;99.90
1778;DHT22;71547;50.146;8.174;2024-03-29T01:41:20;7.70;99.90
1778;DHT22;71547;50.146;8.174;2024-03-29T01:43:46;7.70;99.90
1778;DHT22;71547;50.146;8.174;2024-03-29T01:46:16;7.80;99.90
1778;DHT22;71547;50.146;8.174;2024-03-29T01:48:42;7.70;99.90
1778;DHT22;71547;50.146;8.174;2024-03-29T01:51:11;7.70;99.90
1778;DHT22;71547;50.146;8.174;2024-03-29T01:53:38;7.60;99.90
1778;DHT22;71547;50.146;8.174;2024-03-29T01:56:09;7.60;99.90
1778;DHT22;71547;50.146;8.174;2024-03-29T01:58:36;7.60;99.90
1778;DHT22;71547;50.146;8.174;2024-03-29T02:01:03;7.50;99.90
1778;DHT22;71547;50.146;8.174;2024-03-29T02:03:30;7.50;99.90
1778;DHT22;71547;50.146;8.174;2024-03-29T02:05:56;7.50;99.90
1778;DHT22;71547;50.146;8.174;2024-03-29T02:08:23;7.50;99.90
1778;DHT22;71547;50.146;8.174;2024-03-29T02:10:49;7.40;99.90
1778;DHT22;71547;50.146;8.174;2024-03-29T02:13:18;7.40;99.90
1778;DHT22;71547;50.146;8.174;2024-03-29T02:16:03;7.40;99.90
1778;DHT22;71547;50.146;8.174;2024-03-29T02:18:29;7.50;99.90
1778;DHT22;71547;50.146;8.174;2024-03-29T02:20:55;7.40;99.90
1778;DHT22;71547;50.146;8.174;2024-03-29T02:23:26;7.50;99.90
1778;DHT22;71547;50.146;8.174;2024-03-29T02:25:57;7.60;99.90
1778;DHT22;71547;50.146;8.174;2024-03-29T02:28:25;7.60;99.90
1778;DHT22;71547;50.146;8.174;2024-03-29T02:30:51;7.60;99.90
1778;DHT22;71547;50.146;8.174;2024-03-29T02:33:17;7.60;99.90
1778;DHT22;71547;50.146;8.174;2024-03-29T02:35:43;7.60;99.90
1778;DHT22;71547;50.146;8.174;2024-03-29T02:38:09;7.60;99.90
1778;DHT22;71547;50.146;8.174;2024-03-29T02:40:36;7.60;99.90
1778;DHT22;71547;50.146;8.174;2024-03-29T02:43:03;7.70;99.90
1778;DHT22;71547;50.146;8.174;2024-03-29T02:45:30;7.60;99.90
1778;DHT22;71547;50.146;8.174;2024-03-29T02:47:56;7.60;99.90
1778;DHT22;71547;50.146;8.174;2024-03-29T02:50:22;7.60;99.90
1778;DHT22;71547;50.146;8.174;2024-03-29T02:52:48;7.60;99.90
1778;DHT22;71547;50.146;8.174;2024-03-29T02:55:14;7.60;99.90
1778;DHT22;71547;50.146;8.174;2024-03-29T02:57:40;7.50;99.90
1778;DHT22;71547;50.146;8.174;2024-03-29T03:00:09;7.50;99.90
1778;DHT22;71547;50.146;8.174;2024-03-29T03:02:37;7.40;99.90
1778;DHT22;71547;50.146;8.174;2024-03-29T03:05:05;7.30;99.90
1778;DHT22;71547;50.146;8.174;2024-03-29T03:07:35;7.40;99.90
1778;DHT22;71547;50.146;8.174;2024-03-29T03:10:20;7.30;99.90
1778;DHT22;71547;50.146;8.174;2024-03-29T03:13:05;7.30;99.90
1778;DHT22;71547;50.146;8.174;2024-03-29T03:15:32;7.20;99.90
1778;DHT22;71547;50.146;8.174;2024-03-29T03:17:58;7.20;99.90
1778;DHT22;71547;50.146;8.174;2024-03-29T03:20:24;7.30;99.90
1778;DHT22;71547;50.146;8.174;2024-03-29T03:22:56;7.20;99.90
1778;DHT22;71547;50.146;8.174;2024-03-29T03:25:24;7.20;99.90
1778;DHT22;71547;50.146;8.174;2024-03-29T03:27:51;7.20;99.90
1778;DHT22;71547;50.146;8.174;2024-03-29T03:30:17;7.20;99.90
1778;DHT22;71547;50.146;8.174;2024-03-29T03:32:48;7.20;99.90
1778;DHT22;71547;50.146;8.174;2024-03-29T03:35:15;7.30;99.90
1778;DHT22;71547;50.146;8.174;2024-03-29T03:37:41;7.40;99.90
1778;DHT22;71547;50.146;8.174;2024-03-29T03:40:08;7.30;99.90
1778;DHT22;71547;50.146;8.174;2024-03-29T03:42:34;7.20;99.90
1778;DHT22;71547;50.146;8.174;2024-03-29T03:45:00;7.30;99.90
1778;DHT22;71547;50.146;8.174;2024-03-29T03:47:27;7.40;99.90
1778;DHT22;71547;50.146;8.174;2024-03-29T03:49:54;7.40;99.90
1778;DHT22;71547;50.146;8.174;2024-03-29T03:52:20;7.30;99.90
1778;DHT22;71547;50.146;8.174;2024-03-29T03:54:49;7.30;99.90
1778;DHT22;71547;50.146;8.174;2024-03-29T03:57:15;7.30;99.90
1778;DHT22;71547;50.146;8.174;2024-03-29T03:59:41;7.30;99.90
1778;DHT22;71547;50.146;8.174;2024-03-29T04:02:07;7.30;99.90
1778;DHT22;71547;50.146;8.174;2024-03-29T04:04:34;7.30;99.90
1778;DHT22;71547;50.146;8.174;2024-03-29T04:07:01;7.40;99.90
1778;DHT22;71547;50.146;8.174;2024-03-29T04:09:27;7.50;99.90
1778;DHT22;71547;50.146;8.174;2024-03-29T04:11:54;7.40;99.90
1778;DHT22;71547;50.146;8.174;2024-03-29T04:14:20;7.40;99.90
1778;DHT22;71547;50.146;8.174;2024-03-29T04:16:47;7.40;99.90
1778;DHT22;71547;50.146;8.174;2024-03-29T04:19:13;7.40;99.90
1778;DHT22;71547;50.146;8.174;2024-03-29T04:21:39;7.40;99.90
1778;DHT22;71547;50.146;8.174;2024-03-29T04:24:06;7.30;99.90
1778;DHT22;71547;50.146;8.174;2024-03-29T04:26:35;7.30;99.90
1778;DHT22;71547;50.146;8.174;2024-03-29T04:29:02;7.20;99.90
1778;DHT22;71547;50.146;8.174;2024-03-29T04:31:29;7.20;99.90
1778;DHT22;71547;50.146;8.174;2024-03-29T04:33:55;7.10;99.90
1778;DHT22;71547;50.146;8.174;2024-03-29T04:36:21;7.10;99.90
1778;DHT22;71547;50.146;8.174;2024-03-29T04:38:48;7.10;99.90
1778;DHT22;71547;50.146;8.174;2024-03-29T04:41:15;7.10;99.90
1778;DHT22;71547;50.146;8.174;2024-03-29T04:43:42;7.10;99.90
1778;DHT22;71547;50.146;8.174;2024-03-29T04:46:12;7.10;99.90
1778;DHT22;71547;50.146;8.174;2024-03-29T04:48:39;7.10;99.90
1778;DHT22;71547;50.146;8.174;2024-03-29T04:51:11;7.00;99.90
1778;DHT22;71547;50.146;8.174;2024-03-29T04:53:39;7.10;99.90
1778;DHT22;71547;50.146;8.174;2024-03-29T04:56:06;7.10;99.90
1778;DHT22;71547;50.146;8.174;2024-03-29T04:58:33;7.10;99.90
1778;DHT22;71547;50.146;8.174;2024-03-29T05:01:00;7.10;99.90
1778;DHT22;71547;50.146;8.174;2024-03-29T05:03:26;7.10;99.90
1778;DHT22;71547;50.146;8.174;2024-03-29T05:05:52;7.00;99.90
1778;DHT22;71547;50.146;8.174;2024-03-29T05:08:19;7.00;99.90
1778;DHT22;71547;50.146;8.174;2024-03-29T05:10:47;7.00;99.90
1778;DHT22;71547;50.146;8.174;2024-03-29T05:13:13;6.90;99.90
1778;DHT22;71547;50.146;8.174;2024-03-29T05:15:41;6.90;99.90
1778;DHT22;71547;50.146;8.174;2024-03-29T05:18:08;6.90;99.90
1778;DHT22;71547;50.146;8.174;2024-03-29T05:20:34;6.80;99.90
1778;DHT22;71547;50.146;8.174;2024-03-29T05:23:01;6.80;99.90
1778;DHT22;71547;50.146;8.174;2024-03-29T05:25:27;6.80;99.90
1778;DHT22;71547;50.146;8.174;2024-03-29T05:27:53;6.80;99.90
1778;DHT22;71547;50.146;8.174;2024-03-29T05:30:21;6.70;99.90
1778;DHT22;71547;50.146;8.174;2024-03-29T05:32:52;6.70;99.90
1778;DHT22;71547;50.146;8.174;2024-03-29T05:35:18;6.60;99.90
1778;DHT22;71547;50.146;8.174;2024-03-29T05:37:44;6.60;99.90
1778;DHT22;71547;50.146;8.174;2024-03-29T05:40:15;6.60;99.90
1778;DHT22;71547;50.146;8.174;2024-03-29T05:42:41;6.60;99.90
1778;DHT22;71547;50.146;8.174;2024-03-29T05:45:22;6.60;99.90
1778;DHT22;71547;50.146;8.174;2024-03-29T05:47:51;6.50;99.90
1778;DHT22;71547;50.146;8.174;2024-03-29T05:50:18;6.50;99.90
1778;DHT22;71547;50.146;8.174;2024-03-29T05:52:44;6.50;99.90
1778;DHT22;71547;50.146;8.174;2024-03-29T05:55:10;6.50;99.90
1778;DHT22;71547;50.146;8.174;2024-03-29T05:57:36;6.60;99.90
1778;DHT22;71547;50.146;8.174;2024-03-29T06:00:12;6.70;99.90
1778;DHT22;71547;50.146;8.174;2024-03-29T06:02:41;6.70;99.90
1778;DHT22;71547;50.146;8.174;2024-03-29T06:05:13;6.70;99.90
1778;DHT22;71547;50.146;8.174;2024-03-29T06:07:42;6.70;99.90
1778;DHT22;71547;50.146;8.174;2024-03-29T06:10:08;6.70;99.90
1778;DHT22;71547;50.146;8.174;2024-03-29T06:12:36;6.80;99.90
1778;DHT22;71547;50.146;8.174;2024-03-29T06:15:05;6.80;99.90
1778;DHT22;71547;50.146;8.174;2024-03-29T06:17:50;6.80;99.90
1778;DHT22;71547;50.146;8.174;2024-03-29T06:20:18;6.80;99.90
1778;DHT22;71547;50.146;8.174;2024-03-29T06:22:44;6.80;99.90
1778;DHT22;71547;50.146;8.174;2024-03-29T06:25:11;6.80;99.90
1778;DHT22;71547;50.146;8.174;2024-03-29T06:27:39;6.80;99.90
1778;DHT22;71547;50.146;8.174;2024-03-29T06:30:15;6.90;99.90
1778;DHT22;71547;50.146;8.174;2024-03-29T06:32:42;6.80;99.90
1778;DHT22;71547;50.146;8.174;2024-03-29T06:35:09;6.80;99.90
1778;DHT22;71547;50.146;8.174;2024-03-29T06:37:36;6.70;99.90
1778;DHT22;71547;50.146;8.174;2024-03-29T06:40:03;6.80;99.90
1778;DHT22;71547;50.146;8.174;2024-03-29T06:42:33;6.70;99.90
1778;DHT22;71547;50.146;8.174;2024-03-29T06:44:59;6.70;99.90
1778;DHT22;71547;50.146;8.174;2024-03-29T06:47:28;6.80;99.90
1778;DHT22;71547;50.146;8.174;2024-03-29T06:49:57;6.80;99.90
1778;DHT22;71547;50.146;8.174;2024-03-29T06:52:23;6.80;99.90
1778;DHT22;71547;50.146;8.174;2024-03-29T06:54:51;6.90;99.90
1778;DHT22;71547;50.146;8.174;2024-03-29T06:57:18;6.90;99.90
1778;DHT22;71547;50.146;8.174;2024-03-29T06:59:49;7.00;99.90
1778;DHT22;71547;50.146;8.174;2024-03-29T07:02:15;7.00;99.90
1778;DHT22;71547;50.146;8.174;2024-03-29T07:04:44;7.00;99.90
1778;DHT22;71547;50.146;8.174;2024-03-29T07:07:11;7.10;99.90
1778;DHT22;71547;50.146;8.174;2024-03-29T07:09:40;7.00;99.90
1778;DHT22;71547;50.146;8.174;2024-03-29T07:12:10;7.10;99.90
1778;DHT22;71547;50.146;8.174;2024-03-29T07:14:37;7.10;99.90
1778;DHT22;71547;50.146;8.174;2024-03-29T07:17:04;7.10;99.90
1778;DHT22;71547;50.146;8.174;2024-03-29T07:19:30;7.20;99.90
1778;DHT22;71547;50.146;8.174;2024-03-29T07:21:57;7.20;99.90
1778;DHT22;71547;50.146;8.174;2024-03-29T07:24:25;7.30;99.90
1778;DHT22;71547;50.146;8.174;2024-03-29T07:26:53;7.40;99.90
1778;DHT22;71547;50.146;8.174;2024-03-29T07:29:20;7.40;99.90
1778;DHT22;71547;50.146;8.174;2024-03-29T07:31:47;7.50;99.90
1778;DHT22;71547;50.146;8.174;2024-03-29T07:34:13;7.50;99.90
1778;DHT22;71547;50.146;8.174;2024-03-29T07:36:41;7.60;99.90
1778;DHT22;71547;50.146;8.174;2024-03-29T07:39:07;7.70;99.90
1778;DHT22;71547;50.146;8.174;2024-03-29T07:41:34;7.70;99.90
1778;DHT22;71547;50.146;8.174;2024-03-29T07:44:00;7.70;99.90
1778;DHT22;71547;50.146;8.174;2024-03-29T07:46:33;7.80;99.90
1778;DHT22;71547;50.146;8.174;2024-03-29T07:48:59;7.90;99.90
1778;DHT22;71547;50.146;8.174;2024-03-29T07:51:25;8.00;99.90
1778;DHT22;71547;50.146;8.174;2024-03-29T07:53:52;8.00;99.90
1778;DHT22;71547;50.146;8.174;2024-03-29T07:56:18;8.00;99.90
1778;DHT22;71547;50.146;8.174;2024-03-29T07:58:44;8.10;99.90
1778;DHT22;71547;50.146;8.174;2024-03-29T08:01:17;8.10;99.90
1778;DHT22;71547;50.146;8.174;2024-03-29T08:03:45;8.10;99.90
1778;DHT22;71547;50.146;8.174;2024-03-29T08:06:11;8.10;99.90
1778;DHT22;71547;50.146;8.174;2024-03-29T08:08:38;8.20;99.90
1778;DHT22;71547;50.146;8.174;2024-03-29T08:11:04;8.20;99.90
1778;DHT22;71547;50.146;8.174;2024-03-29T08:13:30;8.20;99.90
1778;DHT22;71547;50.146;8.174;2024-03-29T08:16:00;8.30;99.90
1778;DHT22;71547;50.146;8.174;2024-03-29T08:18:27;8.30;99.90
1778;DHT22;71547;50.146;8.174;2024-03-29T08:20:55;8.50;99.90
1778;DHT22;71547;50.146;8.174;2024-03-29T08:23:21;8.50;99.90
1778;DHT22;71547;50.146;8.174;2024-03-29T08:25:48;8.50;99.90
1778;DHT22;71547;50.146;8.174;2024-03-29T08:28:14;8.60;99.90
1778;DHT22;71547;50.146;8.174;2024-03-29T08:30:42;8.60;99.90
1778;DHT22;71547;50.146;8.174;2024-03-29T08:33:10;8.80;99.90
1778;DHT22;71547;50.146;8.174;2024-03-29T08:35:37;8.80;99.90
1778;DHT22;71547;50.146;8.174;2024-03-29T08:38:04;8.90;99.90
1778;DHT22;71547;50.146;8.174;2024-03-29T08:40:35;8.90;99.90
1778;DHT22;71547;50.146;8.174;2024-03-29T08:43:04;8.80;99.90
1778;DHT22;71547;50.146;8.174;2024-03-29T08:45:30;8.80;99.90
1778;DHT22;71547;50.146;8.174;2024-03-29T08:47:56;8.90;99.90
1778;DHT22;71547;50.146;8.174;2024-03-29T08:50:22;8.90;99.90
1778;DHT22;71547;50.146;8.174;2024-03-29T08:52:49;9.00;99.90
1778;DHT22;71547;50.146;8.174;2024-03-29T08:55:16;8.90;99.90
1778;DHT22;71547;50.146;8.174;2024-03-29T08:57:43;8.90;99.90
1778;DHT22;71547;50.146;8.174;2024-03-29T09:00:10;8.80;99.90
1778;DHT22;71547;50.146;8.174;2024-03-29T09:02:37;8.70;99.90
1778;DHT22;71547;50.146;8.174;2024-03-29T09:05:04;8.70;99.90
1778;DHT22;71547;50.146;8.174;2024-03-29T09:07:31;8.70;99.90
1778;DHT22;71547;50.146;8.174;2024-03-29T09:09:57;8.70;99.90
1778;DHT22;71547;50.146;8.174;2024-03-29T09:12:25;8.70;99.90
1778;DHT22;71547;50.146;8.174;2024-03-29T09:14:52;8.80;99.90
1778;DHT22;71547;50.146;8.174;2024-03-29T09:17:19;8.90;99.90
1778;DHT22;71547;50.146;8.174;2024-03-29T09:19:49;9.00;99.90
1778;DHT22;71547;50.146;8.174;2024-03-29T09:22:17;9.10;99.90
1778;DHT22;71547;50.146;8.174;2024-03-29T09:24:43;9.10;99.90
1778;DHT22;71547;50.146;8.174;2024-03-29T09:27:09;9.20;99.90
1778;DHT22;71547;50.146;8.174;2024-03-29T09:29:37;9.10;99.90
1778;DHT22;71547;50.146;8.174;2024-03-29T09:32:03;9.20;99.90
1778;DHT22;71547;50.146;8.174;2024-03-29T09:34:29;9.20;99.90
1778;DHT22;71547;50.146;8.174;2024-03-29T09:36:58;9.30;99.90
1778;DHT22;71547;50.146;8.174;2024-03-29T09:39:25;9.50;99.90
1778;DHT22;71547;50.146;8.174;2024-03-29T09:41:51;9.60;99.90
1778;DHT22;71547;50.146;8.174;2024-03-29T09:44:22;9.50;99.90
1778;DHT22;71547;50.146;8.174;2024-03-29T09:46:52;9.50;99.90
1778;DHT22;71547;50.146;8.174;2024-03-29T09:49:22;9.40;99.90
1778;DHT22;71547;50.146;8.174;2024-03-29T09:51:49;9.40;99.90
1778;DHT22;71547;50.146;8.174;2024-03-29T09:54:15;9.30;99.90
1778;DHT22;71547;50.146;8.174;2024-03-29T09:56:42;9.20;99.90
1778;DHT22;71547;50.146;8.174;2024-03-29T09:59:09;9.20;99.90
1778;DHT22;71547;50.146;8.174;2024-03-29T10:01:38;9.20;99.90
1778;DHT22;71547;50.146;8.174;2024-03-29T10:04:07;9.30;99.90
1778;DHT22;71547;50.146;8.174;2024-03-29T10:06:34;9.30;99.90
1778;DHT22;71547;50.146;8.174;2024-03-29T10:09:03;9.30;99.90
1778;DHT22;71547;50.146;8.174;2024-03-29T10:11:30;9.40;99.90
1778;DHT22;71547;50.146;8.174;2024-03-29T10:13:59;9.40;99.90
1778;DHT22;71547;50.146;8.174;2024-03-29T10:16:26;9.30;99.90
1778;DHT22;71547;50.146;8.174;2024-03-29T10:18:52;9.30;99.90
1778;DHT22;71547;50.146;8.174;2024-03-29T10:21:24;9.30;99.90
1778;DHT22;71547;50.146;8.174;2024-03-29T10:23:52;9.40;99.90
1778;DHT22;71547;50.146;8.174;2024-03-29T10:26:19;9.40;99.90
1778;DHT22;71547;50.146;8.174;2024-03-29T10:28:47;9.50;99.90
1778;DHT22;71547;50.146;8.174;2024-03-29T10:31:14;9.50;99.90
1778;DHT22;71547;50.146;8.174;2024-03-29T10:33:43;9.60;99.90
1778;DHT22;71547;50.146;8.174;2024-03-29T10:36:14;9.70;99.90
1778;DHT22;71547;50.146;8.174;2024-03-29T10:38:45;9.90;99.90
1778;DHT22;71547;50.146;8.174;2024-03-29T10:41:13;9.90;99.90
1778;DHT22;71547;50.146;8.174;2024-03-29T10:43:41;9.90;99.90
1778;DHT22;71547;50.146;8.174;2024-03-29T10:46:10;9.80;99.90
1778;DHT22;71547;50.146;8.174;2024-03-29T10:48:38;9.70;99.90
1778;DHT22;71547;50.146;8.174;2024-03-29T10:51:05;9.70;99.90
1778;DHT22;71547;50.146;8.174;2024-03-29T10:53:31;9.60;99.90
1778;DHT22;71547;50.146;8.174;2024-03-29T10:56:00;9.60;99.90
1778;DHT22;71547;50.146;8.174;2024-03-29T10:58:30;9.60;99.90
1778;DHT22;71547;50.146;8.174;2024-03-29T11:00:59;9.70;99.90
1778;DHT22;71547;50.146;8.174;2024-03-29T11:03:35;9.80;99.90
1778;DHT22;71547;50.146;8.174;2024-03-29T11:06:05;9.90;99.90
1778;DHT22;71547;50.146;8.174;2024-03-29T11:08:33;9.90;99.90
1778;DHT22;71547;50.146;8.174;2024-03-29T11:11:10;10.00;99.90
1778;DHT22;71547;50.146;8.174;2024-03-29T11:13:43;9.90;99.90
1778;DHT22;71547;50.146;8.174;2024-03-29T11:16:15;9.90;99.90
1778;DHT22;71547;50.146;8.174;2024-03-29T11:18:43;9.90;99.90
1778;DHT22;71547;50.146;8.174;2024-03-29T11:21:10;9.70;99.90
1778;DHT22;71547;50.146;8.174;2024-03-29T11:23:39;9.50;99.90
1778;DHT22;71547;50.146;8.174;2024-03-29T11:26:05;9.50;99.90
1778;DHT22;71547;50.146;8.174;2024-03-29T11:28:34;9.40;99.90
1778;DHT22;71547;50.146;8.174;2024-03-29T11:31:02;9.40;99.90
1778;DHT22;71547;50.146;8.174;2024-03-29T11:33:33;9.30;99.90
1778;DHT22;71547;50.146;8.174;2024-03-29T11:36:11;9.30;99.90
1778;DHT22;71547;50.146;8.174;2024-03-29T11:38:38;9.10;99.90
1778;DHT22;71547;50.146;8.174;2024-03-29T11:41:06;9.10;99.90
1778;DHT22;71547;50.146;8.174;2024-03-29T11:43:35;9.10;99.90
1778;DHT22;71547;50.146;8.174;2024-03-29T11:46:05;9.10;99.90
1778;DHT22;71547;50.146;8.174;2024-03-29T11:48:34;9.20;99.90
1778;DHT22;71547;50.146;8.174;2024-03-29T11:51:02;9.20;99.90
1778;DHT22;71547;50.146;8.174;2024-03-29T11:53:30;9.20;99.90
1778;DHT22;71547;50.146;8.174;2024-03-29T11:55:57;9.10;99.90
1778;DHT22;71547;50.146;8.174;2024-03-29T11:58:25;9.30;99.90
1778;DHT22;71547;50.146;8.174;2024-03-29T12:04:05;9.40;99.90
1778;DHT22;71547;50.146;8.174;2024-03-29T12:06:31;9.40;99.90
1778;DHT22;71547;50.146;8.174;2024-03-29T12:08:58;9.40;99.90
1778;DHT22;71547;50.146;8.174;2024-03-29T12:11:28;9.40;99.90
1778;DHT22;71547;50.146;8.174;2024-03-29T12:13:55;9.40;99.90
1778;DHT22;71547;50.146;8.174;2024-03-29T12:16:25;9.40;99.90
1778;DHT22;71547;50.146;8.174;2024-03-29T12:18:52;9.40;99.90
1778;DHT22;71547;50.146;8.174;2024-03-29T12:21:18;9.30;99.90
1778;DHT22;71547;50.146;8.174;2024-03-29T12:23:48;9.30;99.90
1778;DHT22;71547;50.146;8.174;2024-03-29T12:26:15;9.30;99.90
1778;DHT22;71547;50.146;8.174;2024-03-29T12:28:49;9.20;99.90
1778;DHT22;71547;50.146;8.174;2024-03-29T12:31:15;9.10;99.90
1778;DHT22;71547;50.146;8.174;2024-03-29T12:33:52;9.10;99.90
1778;DHT22;71547;50.146;8.174;2024-03-29T12:36:23;9.20;99.90
1778;DHT22;71547;50.146;8.174;2024-03-29T12:38:49;9.20;99.90
1778;DHT22;71547;50.146;8.174;2024-03-29T12:41:18;9.20;99.90
1778;DHT22;71547;50.146;8.174;2024-03-29T12:43:45;9.20;99.90
1778;DHT22;71547;50.146;8.174;2024-03-29T12:46:11;9.20;99.90
1778;DHT22;71547;50.146;8.174;2024-03-29T12:48:37;9.20;99.90
1778;DHT22;71547;50.146;8.174;2024-03-29T12:51:06;9.20;99.90
1778;DHT22;71547;50.146;8.174;2024-03-29T12:53:33;9.20;99.90
1778;DHT22;71547;50.146;8.174;2024-03-29T12:55:59;9.10;99.90
1778;DHT22;71547;50.146;8.174;2024-03-29T12:58:26;9.20;99.90
1778;DHT22;71547;50.146;8.174;2024-03-29T13:00:54;9.30;99.90
1778;DHT22;71547;50.146;8.174;2024-03-29T13:03:20;9.40;99.90
1778;DHT22;71547;50.146;8.174;2024-03-29T13:05:46;9.40;99.90
1778;DHT22;71547;50.146;8.174;2024-03-29T13:08:15;9.40;99.90
1778;DHT22;71547;50.146;8.174;2024-03-29T13:10:43;9.50;99.90
1778;DHT22;71547;50.146;8.174;2024-03-29T13:13:10;9.40;99.90
1778;DHT22;71547;50.146;8.174;2024-03-29T13:15:39;9.50;99.90
1778;DHT22;71547;50.146;8.174;2024-03-29T13:18:07;9.50;99.90
1778;DHT22;71547;50.146;8.174;2024-03-29T13:20:36;9.70;99.90
1778;DHT22;71547;50.146;8.174;2024-03-29T13:23:08;9.80;99.90
1778;DHT22;71547;50.146;8.174;2024-03-29T13:25:36;10.00;99.90
1778;DHT22;71547;50.146;8.174;2024-03-29T13:28:03;10.10;99.90
1778;DHT22;71547;50.146;8.174;2024-03-29T13:30:29;10.20;99.90
1778;DHT22;71547;50.146;8.174;2024-03-29T13:32:55;10.30;99.90
1778;DHT22;71547;50.146;8.174;2024-03-29T13:35:22;10.40;99.90
1778;DHT22;71547;50.146;8.174;2024-03-29T13:37:49;10.40;99.90
1778;DHT22;71547;50.146;8.174;2024-03-29T13:40:19;10.40;99.90
1778;DHT22;71547;50.146;8.174;2024-03-29T13:42:48;10.50;99.90
1778;DHT22;71547;50.146;8.174;2024-03-29T13:45:15;10.50;99.90
1778;DHT22;71547;50.146;8.174;2024-03-29T13:47:42;10.60;99.90
1778;DHT22;71547;50.146;8.174;2024-03-29T13:50:14;10.50;99.90
1778;DHT22;71547;50.146;8.174;2024-03-29T13:52:41;10.50;99.90
1778;DHT22;71547;50.146;8.174;2024-03-29T13:55:09;10.40;99.90
1778;DHT22;71547;50.146;8.174;2024-03-29T13:57:36;10.40;99.90
1778;DHT22;71547;50.146;8.174;2024-03-29T14:00:05;10.50;99.90
1778;DHT22;71547;50.146;8.174;2024-03-29T14:02:32;10.60;99.90
1778;DHT22;71547;50.146;8.174;2024-03-29T14:04:59;10.60;99.90
1778;DHT22;71547;50.146;8.174;2024-03-29T14:07:25;10.60;99.90
1778;DHT22;71547;50.146;8.174;2024-03-29T14:09:51;10.50;99.90
1778;DHT22;71547;50.146;8.174;2024-03-29T14:12:18;10.50;99.90
1778;DHT22;71547;50.146;8.174;2024-03-29T14:14:47;10.50;99.90
1778;DHT22;71547;50.146;8.174;2024-03-29T14:17:17;10.60;99.90
1778;DHT22;71547;50.146;8.174;2024-03-29T14:19:44;10.60;99.90
1778;DHT22;71547;50.146;8.174;2024-03-29T14:22:11;10.60;99.90
1778;DHT22;71547;50.146;8.174;2024-03-29T14:24:38;10.60;99.90
1778;DHT22;71547;50.146;8.174;2024-03-29T14:27:06;10.70;99.90
1778;DHT22;71547;50.146;8.174;2024-03-29T14:29:32;10.70;99.90
1778;DHT22;71547;50.146;8.174;2024-03-29T14:31:59;10.70;99.90
1778;DHT22;71547;50.146;8.174;2024-03-29T14:34:28;10.60;99.90
1778;DHT22;71547;50.146;8.174;2024-03-29T14:36:58;10.70;99.90
1778;DHT22;71547;50.146;8.174;2024-03-29T14:39:24;10.60;99.90
1778;DHT22;71547;50.146;8.174;2024-03-29T14:41:51;10.60;99.90
1778;DHT22;71547;50.146;8.174;2024-03-29T14:44:18;10.60;99.90
1778;DHT22;71547;50.146;8.174;2024-03-29T14:46:46;10.60;99.90
1778;DHT22;71547;50.146;8.174;2024-03-29T14:49:13;10.60;99.90
1778;DHT22;71547;50.146;8.174;2024-03-29T14:51:41;10.50;99.90
1778;DHT22;71547;50.146;8.174;2024-03-29T14:54:07;10.50;99.90
1778;DHT22;71547;50.146;8.174;2024-03-29T14:56:34;10.50;99.90
1778;DHT22;71547;50.146;8.174;2024-03-29T14:59:02;10.50;99.90
1778;DHT22;71547;50.146;8.174;2024-03-29T15:01:35;10.50;99.90
1778;DHT22;71547;50.146;8.174;2024-03-29T15:04:02;10.60;99.90
1778;DHT22;71547;50.146;8.174;2024-03-29T15:06:29;10.50;99.90
1778;DHT22;71547;50.146;8.174;2024-03-29T15:08:57;10.50;99.90
1778;DHT22;71547;50.146;8.174;2024-03-29T15:11:24;10.50;99.90
1778;DHT22;71547;50.146;8.174;2024-03-29T15:13:50;10.40;99.90
1778;DHT22;71547;50.146;8.174;2024-03-29T15:16:17;10.50;99.90
1778;DHT22;71547;50.146;8.174;2024-03-29T15:18:47;10.50;99.90
1778;DHT22;71547;50.146;8.174;2024-03-29T15:21:13;10.50;99.90
1778;DHT22;71547;50.146;8.174;2024-03-29T15:23:39;10.50;99.90
1778;DHT22;71547;50.146;8.174;2024-03-29T15:26:07;10.50;99.90
1778;DHT22;71547;50.146;8.174;2024-03-29T15:28:34;10.50;99.90
1778;DHT22;71547;50.146;8.174;2024-03-29T15:31:20;10.50;99.90
1778;DHT22;71547;50.146;8.174;2024-03-29T15:33:50;10.50;99.90
1778;DHT22;71547;50.146;8.174;2024-03-29T15:36:17;10.50;99.90
1778;DHT22;71547;50.146;8.174;2024-03-29T15:38:44;10.50;99.90
1778;DHT22;71547;50.146;8.174;2024-03-29T15:41:12;10.60;99.90
1778;DHT22;71547;50.146;8.174;2024-03-29T15:43:38;10.60;99.90
1778;DHT22;71547;50.146;8.174;2024-03-29T15:46:05;10.60;99.90
1778;DHT22;71547;50.146;8.174;2024-03-29T15:48:31;10.70;99.90
1778;DHT22;71547;50.146;8.174;2024-03-29T15:50:58;10.80;99.90
1778;DHT22;71547;50.146;8.174;2024-03-29T15:53:24;10.60;99.90
1778;DHT22;71547;50.146;8.174;2024-03-29T15:55:50;10.70;99.90
1778;DHT22;71547;50.146;8.174;2024-03-29T15:58:18;10.70;99.90
1778;DHT22;71547;50.146;8.174;2024-03-29T16:00:45;10.70;99.90
1778;DHT22;71547;50.146;8.174;2024-03-29T16:03:11;10.70;99.90
1778;DHT22;71547;50.146;8.174;2024-03-29T16:05:40;10.60;99.90